Time;durP1;ratioP1;P1;durP2;ratioP2;P2;SDS_P1;SDS_P2;PMS_P1;PMS_P2;Temp;Humidity;BMP_temperature;BMP_pressure;BME280_temperature;BME280_humidity;BME280_pressure;Samples;Min_cycle;Max_cycle;Signal;HPM_P1;HPM_P2
2022/04/28 00:01:40;;;;;;;;;;;;;;;2.92;63.71;99617.69;5031009;28;19956;-66
2022/04/28 00:04:06;;;;;;;;;;;;;;;2.76;62.99;99619.69;5031879;28;20316;-65
2022/04/28 00:06:32;;;;;;;;;;;;;;;2.55;63.75;99623.81;5032395;28;19983;-64
2022/04/28 00:08:57;;;;;;;;;;;;;;;2.46;64.61;99627.53;5032113;28;19925;-65
2022/04/28 00:11:22;;;;;;;;;;;;;;;2.32;64.16;99636.16;5030800;28;19929;-66
2022/04/28 00:13:48;;;;;;;;;;;;;;;2.16;64.57;99627.47;5032203;28;20314;-66
2022/04/28 00:16:14;;;;;;;;;;;;;;;2.13;64.96;99634.88;5030765;28;19925;-67
2022/04/28 00:18:39;;;;;;;;;;;;;;;2.03;64.23;99645.56;5032080;28;19947;-66
2022/04/28 00:21:05;;;;;;;;;;;;;;;1.91;63.95;99644.34;5032040;28;19928;-65
2022/04/28 00:23:30;;;;;;;;;;;;;;;1.87;63.88;99654.34;5031878;28;19925;-66
2022/04/28 00:25:55;;;;;;;;;;;;;;;1.82;64.19;99648.81;5032170;28;19967;-65
2022/04/28 00:28:21;;;;;;;;;;;;;;;1.77;64.46;99649.34;5030780;28;19955;-65
2022/04/28 00:30:47;;;;;;;;;;;;;;;1.68;64.64;99660.84;5032069;28;19921;-66
2022/04/28 00:33:12;;;;;;;;;;;;;;;1.61;65.29;99657.28;5031494;28;20346;-65
2022/04/28 00:35:38;;;;;;;;;;;;;;;1.62;66.33;99660.69;5032160;28;19925;-65
2022/04/28 00:38:04;;;;;;;;;;;;;;;1.58;65.81;99674.09;5032229;28;20414;-65
2022/04/28 00:40:29;;;;;;;;;;;;;;;1.52;64.07;99663.53;5030520;28;19932;-66
2022/04/28 00:43:18;;;;;;;;;;;;;;;1.45;63.72;99665.22;5014090;28;20350;-66
2022/04/28 00:45:41;;;;;;;;;;;;;;;1.38;61.79;99672.91;5030620;28;19931;-66
2022/04/28 00:50:51;;;;;;;;;;;;;;;1.34;61.01;99669.03;5030321;28;19957;-65
2022/04/28 00:53:16;;;;;;;;;;;;;;;1.26;61.50;99672.47;5013977;28;19929;-65
2022/04/28 00:55:42;;;;;;;;;;;;;;;1.22;61.11;99678.22;5030347;28;19968;-66
2022/04/28 00:58:10;;;;;;;;;;;;;;;1.16;61.95;99674.50;5014013;28;19929;-65
2022/04/28 01:00:36;;;;;;;;;;;;;;;1.17;61.75;99678.72;5014024;28;19925;-64
2022/04/28 01:03:02;;;;;;;;;;;;;;;1.18;59.36;99685.59;5031579;28;20355;-65
2022/04/28 01:05:28;;;;;;;;;;;;;;;1.21;60.26;99689.66;5031615;28;19929;-67
2022/04/28 01:07:53;;;;;;;;;;;;;;;1.27;57.67;99684.56;5034487;28;19929;-66
2022/04/28 01:10:19;;;;;;;;;;;;;;;1.29;57.29;99693.03;5017882;28;19925;-65
2022/04/28 01:12:46;;;;;;;;;;;;;;;1.29;57.00;99687.81;5017631;28;19998;-66
2022/04/28 01:15:12;;;;;;;;;;;;;;;1.29;56.53;99695.63;5034221;28;19925;-66
2022/04/28 01:17:39;;;;;;;;;;;;;;;1.29;57.29;99694.81;5034300;28;19986;-65
2022/04/28 01:20:05;;;;;;;;;;;;;;;1.28;56.88;99693.22;5035950;28;19961;-67
2022/04/28 01:22:33;;;;;;;;;;;;;;;1.25;57.35;99696.97;5017622;28;20390;-68
2022/04/28 01:25:07;;;;;;;;;;;;;;;1.28;56.85;99695.81;5034212;28;19999;-66
2022/04/28 01:27:33;;;;;;;;;;;;;;;1.27;56.92;99692.41;5034054;28;20291;-65
2022/04/28 01:29:59;;;;;;;;;;;;;;;1.17;57.12;99691.78;5033940;28;19955;-67
2022/04/28 01:32:29;;;;;;;;;;;;;;;1.15;56.49;99698.97;5033201;28;19929;-66
2022/04/28 01:34:54;;;;;;;;;;;;;;;1.10;56.98;99696.88;5033891;28;19932;-66
2022/04/28 01:37:20;;;;;;;;;;;;;;;1.03;57.23;99702.91;5017108;28;19952;-65
2022/04/28 01:39:46;;;;;;;;;;;;;;;1.04;56.45;99700.16;5033878;28;19931;-66
2022/04/28 01:42:12;;;;;;;;;;;;;;;1.03;57.04;99702.91;5034786;28;19933;-65
2022/04/28 01:44:37;;;;;;;;;;;;;;;0.98;57.88;99702.63;5017270;28;20035;-65
2022/04/28 01:47:03;;;;;;;;;;;;;;;0.97;57.32;99709.66;5017082;28;19929;-67
2022/04/28 01:49:48;;;;;;;;;;;;;;;0.98;57.64;99705.22;4976722;28;20424;-66
2022/04/28 01:55:36;;;;;;;;;;;;;;;1.01;56.15;99713.53;4992979;28;19926;-64
2022/04/28 01:58:33;;;;;;;;;;;;;;;1.06;55.96;99713.00;4973439;28;19930;-66
2022/04/28 02:01:25;;;;;;;;;;;;;;;1.26;55.93;99709.03;4939684;29;20034;-66
2022/04/28 02:03:50;;;;;;;;;;;;;;;1.46;54.71;99708.63;4922211;29;20410;-67
2022/04/28 02:06:20;;;;;;;;;;;;;;;1.69;54.22;99714.72;4937892;29;19937;-65
2022/04/28 02:08:46;;;;;;;;;;;;;;;1.89;53.67;99719.53;4938101;29;20409;-66
2022/04/28 02:11:14;;;;;;;;;;;;;;;2.01;52.68;99712.91;4964378;28;19930;-65
2022/04/28 02:14:03;;;;;;;;;;;;;;;2.10;52.16;99717.09;4955138;28;20032;-65
2022/04/28 02:17:07;;;;;;;;;;;;;;;2.07;51.86;99720.06;4934150;29;20363;-66
2022/04/28 02:19:35;;;;;;;;;;;;;;;2.02;51.95;99725.00;4918398;29;20085;-66
2022/04/28 02:22:01;;;;;;;;;;;;;;;2.02;52.47;99720.56;4955445;28;20040;-66
2022/04/28 02:24:26;;;;;;;;;;;;;;;2.03;52.33;99724.81;4992450;28;19984;-66
2022/04/28 02:26:52;;;;;;;;;;;;;;;2.05;52.55;99735.91;4992637;28;20109;-65
2022/04/28 02:29:18;;;;;;;;;;;;;;;2.08;51.85;99729.53;5001085;28;19925;-64
2022/04/28 02:31:44;;;;;;;;;;;;;;;2.09;51.70;99733.78;5032189;28;19936;-65
2022/04/28 02:34:11;;;;;;;;;;;;;;;2.08;52.06;99728.72;5032672;28;19979;-65
2022/04/28 02:36:40;;;;;;;;;;;;;;;2.08;52.04;99726.09;5032221;28;20028;-66
2022/04/28 02:39:05;;;;;;;;;;;;;;;2.08;51.86;99729.53;5032973;28;20016;-67
2022/04/28 02:41:32;;;;;;;;;;;;;;;2.12;52.41;99738.66;5032383;28;19968;-64
2022/04/28 02:44:00;;;;;;;;;;;;;;;2.14;52.71;99736.66;5016502;28;20027;-66
2022/04/28 02:46:27;;;;;;;;;;;;;;;2.17;52.88;99735.50;5016000;28;20409;-66
2022/04/28 02:49:02;;;;;;;;;;;;;;;2.17;53.36;99738.13;5032799;28;19929;-65
2022/04/28 02:51:33;;;;;;;;;;;;;;;2.25;53.27;99745.91;5031843;28;20040;-66
2022/04/28 02:53:58;;;;;;;;;;;;;;;2.42;54.71;99752.66;5033630;28;20007;-65
2022/04/28 02:56:25;;;;;;;;;;;;;;;2.46;54.00;99750.50;5032142;28;19929;-66
2022/04/28 02:58:51;;;;;;;;;;;;;;;2.59;53.74;99760.38;5032078;28;20433;-67
2022/04/28 03:01:17;;;;;;;;;;;;;;;2.52;55.36;99765.50;5032149;28;19951;-67
2022/04/28 03:03:43;;;;;;;;;;;;;;;2.62;57.81;99767.91;5031906;28;20386;-66
2022/04/28 03:11:37;;;;;;;;;;;;;;;2.56;59.76;99773.81;5033221;28;20388;-65
2022/04/28 03:14:03;;;;;;;;;;;;;;;2.65;59.09;99765.72;5015050;28;19929;-66
2022/04/28 03:16:31;;;;;;;;;;;;;;;2.82;60.01;99782.09;5016123;28;20416;-64
2022/04/28 03:19:02;;;;;;;;;;;;;;;2.73;53.47;99785.78;5032352;28;19940;-64
2022/04/28 03:21:29;;;;;;;;;;;;;;;2.63;47.96;99774.75;5012541;28;19953;-66
2022/04/28 03:23:55;;;;;;;;;;;;;;;2.67;50.58;99776.81;5012126;28;19925;-66
2022/04/28 03:26:21;;;;;;;;;;;;;;;2.83;51.03;99777.69;4995484;28;19937;-66
2022/04/28 03:28:47;;;;;;;;;;;;;;;3.06;52.30;99780.22;4994948;28;19933;-67
2022/04/28 03:31:12;;;;;;;;;;;;;;;3.16;50.87;99789.47;5013171;28;19925;-66
2022/04/28 03:34:04;;;;;;;;;;;;;;;3.10;48.45;99798.03;5009395;28;19925;-66
2022/04/28 03:39:14;;;;;;;;;;;;;;;3.19;48.75;99798.78;5011761;28;20413;-66
2022/04/28 03:41:40;;;;;;;;;;;;;;;3.20;47.21;99803.03;5011622;28;19929;-66
2022/04/28 03:44:06;;;;;;;;;;;;;;;3.26;48.91;99804.91;4995324;28;19926;-66
2022/04/28 03:46:32;;;;;;;;;;;;;;;3.36;47.65;99804.69;5011812;28;19929;-66
2022/04/28 03:48:57;;;;;;;;;;;;;;;3.34;47.07;99806.66;5011897;28;19929;-65
2022/04/28 03:51:23;;;;;;;;;;;;;;;3.33;46.54;99810.28;5027849;28;20406;-65
2022/04/28 03:53:49;;;;;;;;;;;;;;;3.26;46.40;99811.97;5011832;28;19925;-65
2022/04/28 03:56:15;;;;;;;;;;;;;;;3.56;44.96;99813.63;5028078;28;20289;-67
2022/04/28 03:58:41;;;;;;;;;;;;;;;3.76;43.55;99806.00;5011758;28;20313;-66
2022/04/28 04:01:07;;;;;;;;;;;;;;;4.06;43.12;99816.47;5012953;28;19932;-65
2022/04/28 04:03:53;;;;;;;;;;;;;;;4.68;42.19;99821.13;4993478;28;20056;-66
2022/04/28 04:06:18;;;;;;;;;;;;;;;5.07;40.01;99826.91;4976250;28;20314;-66
2022/04/28 04:08:51;;;;;;;;;;;;;;;5.48;38.09;99821.72;4977950;28;19932;-66
2022/04/28 04:11:17;;;;;;;;;;;;;;;5.44;38.05;99825.72;5009692;28;20359;-66
2022/04/28 04:13:42;;;;;;;;;;;;;;;5.51;36.69;99823.16;5009596;28;19930;-64
2022/04/28 04:16:08;;;;;;;;;;;;;;;5.76;37.62;99826.13;4993066;28;19926;-66
2022/04/28 04:19:00;;;;;;;;;;;;;;;5.91;36.04;99829.41;4975592;28;19933;-66
2022/04/28 04:21:28;;;;;;;;;;;;;;;6.15;35.34;99833.41;4969298;28;19930;-65
2022/04/28 04:23:54;;;;;;;;;;;;;;;6.33;34.39;99835.50;4993533;28;19925;-66
2022/04/28 04:26:20;;;;;;;;;;;;;;;6.32;33.51;99837.31;4992614;28;19936;-65
2022/04/28 04:28:45;;;;;;;;;;;;;;;6.44;32.82;99844.63;4993150;28;19925;-67
2022/04/28 04:34:28;;;;;;;;;;;;;;;6.35;31.38;99854.50;5016482;28;20436;-66
2022/04/28 04:36:53;;;;;;;;;;;;;;;6.56;32.00;99854.38;5030239;28;19929;-66
2022/04/28 04:39:19;;;;;;;;;;;;;;;6.57;31.82;99863.91;5029990;28;19929;-65
2022/04/28 04:41:46;;;;;;;;;;;;;;;6.45;32.49;99860.22;5030262;28;19937;-64
2022/04/28 04:44:13;;;;;;;;;;;;;;;6.26;32.52;99867.03;5030281;28;19925;-64
2022/04/28 04:46:41;;;;;;;;;;;;;;;6.23;32.82;99861.38;5029721;28;20008;-64
2022/04/28 04:49:33;;;;;;;;;;;;;;;6.17;32.42;99865.59;5030622;28;19969;-66
2022/04/28 04:52:16;;;;;;;;;;;;;;;6.12;32.99;99870.66;5030417;28;19929;-66
2022/04/28 04:55:02;;;;;;;;;;;;;;;6.18;33.54;99867.25;5030342;28;19972;-66
2022/04/28 04:57:28;;;;;;;;;;;;;;;6.23;33.50;99875.34;5029854;28;19929;-65
2022/04/28 04:59:54;;;;;;;;;;;;;;;6.08;33.36;99867.59;5030614;28;19932;-65
2022/04/28 05:02:22;;;;;;;;;;;;;;;6.08;33.80;99869.41;5029956;28;19932;-64
2022/04/28 05:05:08;;;;;;;;;;;;;;;5.90;34.34;99875.16;5009633;28;19933;-67
2022/04/28 05:07:41;;;;;;;;;;;;;;;5.82;34.37;99870.88;5031466;28;19991;-66
2022/04/28 05:10:07;;;;;;;;;;;;;;;5.72;35.21;99873.06;5030152;28;20422;-68
2022/04/28 05:12:33;;;;;;;;;;;;;;;5.62;35.16;99868.16;5031357;28;19960;-68
2022/04/28 05:15:17;;;;;;;;;;;;;;;5.50;36.07;99876.75;5029561;28;19979;-65
2022/04/28 05:17:56;;;;;;;;;;;;;;;5.44;36.40;99876.53;5015381;28;19935;-65
2022/04/28 05:20:50;;;;;;;;;;;;;;;5.23;36.29;99876.56;5008958;28;19925;-64
2022/04/28 05:23:39;;;;;;;;;;;;;;;5.32;36.05;99878.03;4981548;28;19930;-63
2022/04/28 05:26:39;;;;;;;;;;;;;;;5.46;36.79;99884.22;4950798;29;19937;-63
2022/04/28 05:29:25;;;;;;;;;;;;;;;5.52;37.18;99880.81;4964764;28;19941;-63
2022/04/28 05:32:11;;;;;;;;;;;;;;;5.57;37.91;99888.13;4978298;28;19929;-64
2022/04/28 05:34:57;;;;;;;;;;;;;;;5.63;37.14;99888.16;5008286;28;20027;-65
2022/04/28 05:37:22;;;;;;;;;;;;;;;5.56;36.86;99878.59;4992056;28;20045;-65
2022/04/28 05:39:48;;;;;;;;;;;;;;;5.48;38.12;99879.56;4991739;28;19926;-65
2022/04/28 05:42:13;;;;;;;;;;;;;;;5.51;39.12;99878.38;4992397;28;20010;-66
2022/04/28 05:47:24;;;;;;;;;;;;;;;5.56;38.92;99876.81;5007575;28;19948;-64
2022/04/28 05:49:51;;;;;;;;;;;;;;;5.69;38.36;99883.97;5007242;28;20064;-64
2022/04/28 05:52:16;;;;;;;;;;;;;;;5.80;39.02;99880.78;4999088;28;20061;-63
2022/04/28 05:54:42;;;;;;;;;;;;;;;5.73;39.50;99884.38;5024078;28;19929;-64
2022/04/28 05:57:08;;;;;;;;;;;;;;;5.74;38.40;99886.03;5016206;28;19947;-64
2022/04/28 05:59:34;;;;;;;;;;;;;;;5.85;38.54;99878.41;5032378;28;19932;-66
2022/04/28 06:02:03;;;;;;;;;;;;;;;5.99;37.96;99875.84;5031920;28;19933;-62
2022/04/28 06:04:29;;;;;;;;;;;;;;;5.92;36.94;99881.06;5032240;28;19940;-66
2022/04/28 06:06:55;;;;;;;;;;;;;;;5.92;37.82;99886.31;5031609;28;19929;-64
2022/04/28 06:09:32;;;;;;;;;;;;;;;5.92;37.45;99875.78;5030385;28;19949;-64
2022/04/28 06:11:58;;;;;;;;;;;;;;;6.02;38.99;99878.91;5026589;28;19936;-64
2022/04/28 06:14:24;;;;;;;;;;;;;;;6.05;36.89;99878.50;5011258;28;19926;-63
2022/04/28 06:17:09;;;;;;;;;;;;;;;6.07;37.60;99880.97;5012027;28;20425;-65
2022/04/28 06:19:35;;;;;;;;;;;;;;;6.04;37.70;99878.72;5012177;28;19925;-66
2022/04/28 06:22:04;;;;;;;;;;;;;;;6.14;37.72;99881.78;5013208;28;19930;-63
2022/04/28 06:24:34;;;;;;;;;;;;;;;6.22;37.63;99883.44;5001038;28;20249;-64
2022/04/28 06:27:00;;;;;;;;;;;;;;;6.29;36.41;99890.34;5046964;28;19929;-65
2022/04/28 06:29:27;;;;;;;;;;;;;;;6.01;33.51;99887.81;5029503;28;19932;-65
2022/04/28 06:31:56;;;;;;;;;;;;;;;5.98;31.36;99890.03;5029300;28;19929;-64
2022/04/28 06:34:45;;;;;;;;;;;;;;;5.94;30.48;99886.13;5030947;28;19925;-63
2022/04/28 06:37:14;;;;;;;;;;;;;;;6.06;31.79;99895.09;5045776;28;20343;-64
2022/04/28 06:39:42;;;;;;;;;;;;;;;6.28;33.08;99896.63;5030964;28;20044;-63
2022/04/28 06:42:07;;;;;;;;;;;;;;;6.35;32.46;99901.91;5031179;28;20434;-65
2022/04/28 06:44:51;;;;;;;;;;;;;;;6.23;32.99;99901.66;5030734;28;20394;-64
2022/04/28 06:47:36;;;;;;;;;;;;;;;6.23;33.16;99908.75;5028741;28;20390;-63
2022/04/28 06:50:21;;;;;;;;;;;;;;;6.27;32.87;99900.28;5030921;28;20382;-64
2022/04/28 06:53:18;;;;;;;;;;;;;;;6.54;32.70;99910.91;5008624;28;20076;-65
2022/04/28 06:55:49;;;;;;;;;;;;;;;6.67;32.06;99896.94;4992443;28;19926;-63
2022/04/28 06:58:15;;;;;;;;;;;;;;;6.65;32.81;99891.06;4981740;28;19936;-64
2022/04/28 07:00:42;;;;;;;;;;;;;;;6.68;32.71;99895.97;5008969;28;20358;-64
2022/04/28 07:03:08;;;;;;;;;;;;;;;6.74;32.47;99897.78;5010394;28;19937;-64
2022/04/28 07:05:33;;;;;;;;;;;;;;;6.54;31.10;99901.19;4993893;28;19925;-65
2022/04/28 07:08:01;;;;;;;;;;;;;;;6.27;30.78;99904.75;4991488;28;20326;-66
2022/04/28 07:10:42;;;;;;;;;;;;;;;6.34;28.88;99892.41;5008151;28;19969;-67
2022/04/28 07:13:08;;;;;;;;;;;;;;;6.31;30.58;99890.16;5008484;28;20456;-67
2022/04/28 07:15:35;;;;;;;;;;;;;;;6.43;30.57;99893.03;4992178;28;19944;-67
2022/04/28 07:18:19;;;;;;;;;;;;;;;6.25;31.18;99898.84;4993027;28;19976;-66
2022/04/28 07:20:46;;;;;;;;;;;;;;;6.04;31.18;99907.66;4991303;28;19931;-67
2022/04/28 07:23:12;;;;;;;;;;;;;;;5.87;31.85;99901.88;4970962;28;20361;-66
2022/04/28 07:25:39;;;;;;;;;;;;;;;5.95;32.49;99903.56;5022008;28;20436;-66
2022/04/28 07:28:05;;;;;;;;;;;;;;;6.04;32.49;99905.03;5030327;28;19929;-65
2022/04/28 07:31:06;;;;;;;;;;;;;;;6.73;31.87;99898.78;4932986;29;19966;-68
2022/04/28 07:34:01;;;;;;;;;;;;;;;7.28;30.58;99902.09;4987528;28;19926;-66
2022/04/28 07:36:47;;;;;;;;;;;;;;;7.28;30.92;99910.81;4989098;28;19929;-67
2022/04/28 07:39:42;;;;;;;;;;;;;;;7.43;29.65;99907.97;4985529;28;20393;-64
2022/04/28 07:42:10;;;;;;;;;;;;;;;7.46;29.73;99902.28;4986836;28;20320;-65
2022/04/28 07:44:43;;;;;;;;;;;;;;;7.42;29.92;99901.06;4995783;28;19926;-67
2022/04/28 07:47:12;;;;;;;;;;;;;;;7.35;30.02;99907.34;5003266;28;19930;-66
2022/04/28 07:50:00;;;;;;;;;;;;;;;7.42;30.29;99908.19;4989824;28;19952;-65
2022/04/28 07:52:26;;;;;;;;;;;;;;;7.38;29.40;99899.88;4988215;28;19957;-66
2022/04/28 07:54:53;;;;;;;;;;;;;;;6.99;29.82;99906.72;4988967;28;20048;-65
2022/04/28 07:57:23;;;;;;;;;;;;;;;6.89;31.00;99903.69;4988129;28;19973;-65
2022/04/28 07:59:52;;;;;;;;;;;;;;;6.96;30.03;99908.97;4973089;28;19994;-67
2022/04/28 08:02:19;;;;;;;;;;;;;;;7.26;29.76;99912.84;4988018;28;19930;-66
2022/04/28 08:04:48;;;;;;;;;;;;;;;7.21;29.37;99915.28;4996321;28;19925;-66
2022/04/28 08:07:15;;;;;;;;;;;;;;;7.33;27.92;99907.56;5030950;28;19929;-64
2022/04/28 08:09:43;;;;;;;;;;;;;;;7.55;28.92;99915.25;5027818;28;20023;-68
2022/04/28 08:12:14;;;;;;;;;;;;;;;7.72;27.95;99908.53;5011954;28;19929;-64
2022/04/28 08:14:40;;;;;;;;;;;;;;;7.99;27.47;99906.66;5012076;28;20287;-66
2022/04/28 08:17:07;;;;;;;;;;;;;;;8.33;27.00;99889.69;5011341;28;19929;-68
2022/04/28 08:19:33;;;;;;;;;;;;;;;8.59;26.91;99904.63;5029136;28;19929;-67
2022/04/28 08:22:02;;;;;;;;;;;;;;;8.84;27.15;99901.22;5013960;28;20298;-65
2022/04/28 08:24:30;;;;;;;;;;;;;;;8.91;26.33;99901.97;5027664;28;19925;-66
2022/04/28 08:26:55;;;;;;;;;;;;;;;8.68;27.16;99901.72;5010570;28;19963;-67
2022/04/28 08:29:22;;;;;;;;;;;;;;;8.84;27.02;99904.66;5012527;28;19972;-66
2022/04/28 08:31:53;;;;;;;;;;;;;;;8.67;27.40;99895.63;4995669;28;19933;-67
2022/04/28 08:34:22;;;;;;;;;;;;;;;8.78;26.86;99880.94;5028350;28;19968;-65
2022/04/28 08:36:49;;;;;;;;;;;;;;;9.08;25.72;99881.91;5028128;28;19980;-65
2022/04/28 08:39:17;;;;;;;;;;;;;;;9.36;25.87;99879.88;5027534;28;20406;-66
2022/04/28 08:41:49;;;;;;;;;;;;;;;9.13;25.95;99878.63;5028520;28;20449;-65
2022/04/28 08:44:21;;;;;;;;;;;;;;;8.72;26.60;99881.78;5029923;28;19948;-67
2022/04/28 08:46:55;;;;;;;;;;;;;;;8.40;27.01;99879.09;5028125;28;19928;-65
2022/04/28 08:49:29;;;;;;;;;;;;;;;8.10;27.87;99890.16;5014107;28;19925;-68
2022/04/28 08:52:34;;;;;;;;;;;;;;;7.55;27.97;99891.53;5027696;28;20076;-67
2022/04/28 08:55:08;;;;;;;;;;;;;;;7.15;28.24;99887.09;5011361;28;20424;-66
2022/04/28 08:57:34;;;;;;;;;;;;;;;7.42;28.86;99895.81;5028449;28;20410;-67
2022/04/28 09:00:03;;;;;;;;;;;;;;;7.48;28.50;99897.63;5029438;28;19925;-67
2022/04/28 09:02:37;;;;;;;;;;;;;;;7.80;27.89;99895.16;5030038;28;19975;-68
2022/04/28 09:05:25;;;;;;;;;;;;;;;8.25;27.13;99895.19;5031146;28;19978;-67
2022/04/28 09:08:09;;;;;;;;;;;;;;;8.60;26.97;99897.50;5030495;28;19936;-66
2022/04/28 09:10:54;;;;;;;;;;;;;;;8.74;26.88;99900.88;5030352;28;20405;-66
2022/04/28 09:16:25;;;;;;;;;;;;;;;9.01;26.14;99896.22;5030211;28;19951;-67
2022/04/28 09:18:53;;;;;;;;;;;;;;;9.21;26.22;99896.09;5030262;28;20439;-66
2022/04/28 09:21:20;;;;;;;;;;;;;;;9.01;26.00;99889.09;5027930;28;19929;-67
2022/04/28 09:23:49;;;;;;;;;;;;;;;9.18;26.11;99889.41;5029729;28;19925;-68
2022/04/28 09:26:14;;;;;;;;;;;;;;;9.41;26.76;99880.88;5029323;28;20028;-67
2022/04/28 09:28:40;;;;;;;;;;;;;;;9.57;26.39;99883.97;5032839;28;19925;-68
2022/04/28 09:31:08;;;;;;;;;;;;;;;9.71;26.02;99882.81;5032982;28;19925;-66
2022/04/28 09:34:09;;;;;;;;;;;;;;;9.88;25.21;99880.38;5011990;28;19925;-66
2022/04/28 09:36:58;;;;;;;;;;;;;;;10.16;25.13;99885.16;4975888;28;20431;-66
2022/04/28 09:44:55;;;;;;;;;;;;;;;10.51;24.75;99888.00;4992918;28;19926;-66
2022/04/28 09:47:22;;;;;;;;;;;;;;;10.49;24.27;99887.41;4975797;28;20066;-66
2022/04/28 09:49:55;;;;;;;;;;;;;;;10.45;24.54;99892.34;4992972;28;19925;-66
2022/04/28 09:52:29;;;;;;;;;;;;;;;10.52;25.50;99884.31;4978266;28;19953;-65
2022/04/28 09:55:27;;;;;;;;;;;;;;;10.73;24.12;99880.34;4973326;28;19926;-65
2022/04/28 09:58:11;;;;;;;;;;;;;;;10.81;24.50;99874.72;4972530;28;19930;-66
2022/04/28 10:00:38;;;;;;;;;;;;;;;10.72;24.29;99885.91;4974131;28;19930;-66
2022/04/28 10:03:07;;;;;;;;;;;;;;;10.56;24.22;99882.84;4938777;28;20407;-67
2022/04/28 10:05:36;;;;;;;;;;;;;;;10.71;24.39;99881.59;4985413;28;19986;-68
2022/04/28 10:08:21;;;;;;;;;;;;;;;10.72;24.47;99883.25;5004601;28;19935;-66
2022/04/28 10:10:47;;;;;;;;;;;;;;;10.69;24.15;99889.81;4994384;28;19934;-71
2022/04/28 10:13:12;;;;;;;;;;;;;;;10.66;24.58;99893.72;4994534;28;19940;-72
2022/04/28 10:15:45;;;;;;;;;;;;;;;10.57;24.24;99895.06;4993795;28;19936;-67
2022/04/28 10:18:11;;;;;;;;;;;;;;;10.61;25.13;99900.72;4994647;28;20385;-67
2022/04/28 10:20:38;;;;;;;;;;;;;;;10.64;24.34;99898.41;4988621;28;19932;-64
2022/04/28 10:23:05;;;;;;;;;;;;;;;10.52;23.95;99902.88;4974489;28;19953;-64
2022/04/28 10:34:30;;;;;;;;;;;;;;;9.52;25.28;99903.13;5032695;28;20306;-62
2022/04/28 10:37:05;;;;;;;;;;;;;;;9.53;26.70;99900.28;5032760;28;20345;-62
2022/04/28 10:39:38;;;;;;;;;;;;;;;9.64;26.00;99904.03;5033375;28;19932;-63
2022/04/28 10:42:13;;;;;;;;;;;;;;;9.82;26.14;99903.25;5033077;28;19933;-64
2022/04/28 10:44:42;;;;;;;;;;;;;;;10.10;25.59;99894.81;5031921;28;19925;-62
2022/04/28 10:47:08;;;;;;;;;;;;;;;10.33;24.81;99896.00;5030881;28;19929;-67
2022/04/28 10:49:40;;;;;;;;;;;;;;;10.21;25.78;99891.41;5030736;28;19951;-63
2022/04/28 10:52:05;;;;;;;;;;;;;;;10.17;25.07;99894.72;5029318;28;20032;-63
2022/04/28 10:54:46;;;;;;;;;;;;;;;10.24;25.49;99890.16;5029994;28;20051;-64
2022/04/28 10:57:12;;;;;;;;;;;;;;;10.20;25.35;99887.13;5031995;28;19940;-64
2022/04/28 10:59:38;;;;;;;;;;;;;;;10.38;25.30;99888.16;5031717;28;20385;-63
2022/04/28 11:02:11;;;;;;;;;;;;;;;10.55;24.93;99886.50;5031053;28;19936;-63
2022/04/28 11:04:38;;;;;;;;;;;;;;;10.47;24.82;99884.19;5030558;28;20320;-63
2022/04/28 11:07:24;;;;;;;;;;;;;;;10.35;25.28;99888.63;5028732;28;19935;-63
2022/04/28 11:09:55;;;;;;;;;;;;;;;10.18;25.29;99880.47;5030636;28;19932;-62
2022/04/28 11:12:22;;;;;;;;;;;;;;;10.03;25.77;99872.91;5029847;28;20309;-62
2022/04/28 11:14:47;;;;;;;;;;;;;;;9.87;25.40;99876.94;5031372;28;19925;-65
2022/04/28 11:17:13;;;;;;;;;;;;;;;9.77;26.22;99872.16;5030017;28;19933;-64
2022/04/28 11:19:40;;;;;;;;;;;;;;;9.50;26.03;99876.06;5013127;28;19925;-63
2022/04/28 11:22:05;;;;;;;;;;;;;;;9.69;26.52;99877.72;5031754;28;20271;-63
2022/04/28 11:24:32;;;;;;;;;;;;;;;9.73;26.34;99875.44;5033001;28;19932;-63
2022/04/28 11:27:08;;;;;;;;;;;;;;;9.72;27.10;99874.63;5031318;28;19956;-63
2022/04/28 11:29:39;;;;;;;;;;;;;;;10.00;26.25;99870.69;5014718;28;19925;-63
2022/04/28 11:32:08;;;;;;;;;;;;;;;10.05;25.40;99865.50;5031110;28;20803;-62
2022/04/28 11:34:34;;;;;;;;;;;;;;;9.67;26.15;99866.53;5030192;28;20020;-62
2022/04/28 11:37:15;;;;;;;;;;;;;;;9.87;25.77;99868.19;5029797;28;20426;-63
2022/04/28 11:39:47;;;;;;;;;;;;;;;9.86;25.63;99867.38;5029558;28;19925;-63
2022/04/28 11:42:13;;;;;;;;;;;;;;;10.11;25.74;99859.31;5031021;28;19995;-62
2022/04/28 11:44:51;;;;;;;;;;;;;;;10.13;25.25;99859.91;5029334;28;20012;-63
2022/04/28 11:47:20;;;;;;;;;;;;;;;10.00;25.73;99854.81;5031345;28;20451;-62
2022/04/28 11:49:45;;;;;;;;;;;;;;;9.88;25.33;99854.72;5029751;28;19964;-64
2022/04/28 11:52:17;;;;;;;;;;;;;;;9.83;25.50;99848.47;5030996;28;19983;-65
2022/04/28 11:54:42;;;;;;;;;;;;;;;9.66;25.63;99845.59;5031260;28;20318;-62
2022/04/28 11:57:11;;;;;;;;;;;;;;;9.54;25.76;99840.22;5028337;28;19929;-63
2022/04/28 11:59:37;;;;;;;;;;;;;;;9.75;26.44;99845.06;5032219;28;19925;-62
2022/04/28 12:02:03;;;;;;;;;;;;;;;9.89;25.74;99842.28;5031838;28;20087;-63
2022/04/28 12:04:28;;;;;;;;;;;;;;;9.99;26.14;99840.72;5030608;28;20012;-64
2022/04/28 12:06:54;;;;;;;;;;;;;;;10.08;25.71;99827.97;5030570;28;19929;-62
2022/04/28 12:14:49;;;;;;;;;;;;;;;9.93;25.46;99819.63;5032150;28;20122;-62
2022/04/28 12:20:04;;;;;;;;;;;;;;;9.76;26.37;99817.59;5010259;28;19948;-65
2022/04/28 12:22:31;;;;;;;;;;;;;;;9.87;25.72;99813.38;5024683;28;20387;-65
2022/04/28 12:25:01;;;;;;;;;;;;;;;9.81;26.29;99806.31;5026974;28;20394;-62
2022/04/28 12:27:37;;;;;;;;;;;;;;;9.79;26.48;99800.44;5022054;28;20385;-62
2022/04/28 12:30:06;;;;;;;;;;;;;;;9.71;26.05;99811.34;5023613;28;19929;-63
2022/04/28 12:32:31;;;;;;;;;;;;;;;9.61;26.17;99803.09;5025899;28;19983;-63
2022/04/28 12:34:58;;;;;;;;;;;;;;;9.40;26.21;99805.13;5028439;28;19925;-66
2022/04/28 12:37:25;;;;;;;;;;;;;;;9.55;26.98;99797.63;5029455;28;19933;-64
2022/04/28 12:40:10;;;;;;;;;;;;;;;9.69;26.42;99798.31;5011540;28;19925;-64
2022/04/28 12:42:44;;;;;;;;;;;;;;;9.70;26.85;99807.84;5027991;28;19933;-65
2022/04/28 12:45:10;;;;;;;;;;;;;;;9.69;25.67;99802.81;5031083;28;19925;-62
2022/04/28 12:47:36;;;;;;;;;;;;;;;9.78;26.32;99801.47;5029080;28;19936;-62
2022/04/28 12:50:02;;;;;;;;;;;;;;;9.89;26.54;99798.09;5029833;28;20002;-63
2022/04/28 12:52:30;;;;;;;;;;;;;;;9.90;26.08;99798.88;5029994;28;20755;-63
2022/04/28 12:55:05;;;;;;;;;;;;;;;9.97;26.38;99799.59;5029909;28;20378;-64
2022/04/28 12:57:31;;;;;;;;;;;;;;;9.85;26.34;99791.59;5019367;28;20071;-62
2022/04/28 12:59:59;;;;;;;;;;;;;;;9.95;26.28;99799.03;5022970;28;20020;-63
2022/04/28 13:02:29;;;;;;;;;;;;;;;9.90;26.14;99798.88;5017017;28;19929;-65
2022/04/28 13:04:54;;;;;;;;;;;;;;;9.96;26.47;99798.00;5018179;28;19925;-65
2022/04/28 13:07:20;;;;;;;;;;;;;;;9.93;26.26;99793.13;5032678;28;19929;-63
2022/04/28 13:09:46;;;;;;;;;;;;;;;10.01;26.11;99793.66;5033763;28;19925;-63
2022/04/28 13:12:11;;;;;;;;;;;;;;;10.04;26.36;99791.59;5035104;28;20520;-62
2022/04/28 13:14:37;;;;;;;;;;;;;;;10.18;26.65;99793.03;5032316;28;19925;-63
2022/04/28 13:17:03;;;;;;;;;;;;;;;10.34;26.02;99788.97;5032577;28;19939;-62
2022/04/28 13:19:30;;;;;;;;;;;;;;;10.52;26.00;99783.59;5033250;28;20344;-63
2022/04/28 13:21:56;;;;;;;;;;;;;;;10.65;25.26;99790.56;5031819;28;19984;-63
2022/04/28 13:24:22;;;;;;;;;;;;;;;10.74;26.43;99786.53;5033097;28;20378;-64
2022/04/28 13:26:47;;;;;;;;;;;;;;;10.81;25.30;99789.06;5034856;28;20267;-62
2022/04/28 13:29:13;;;;;;;;;;;;;;;10.71;25.82;99787.00;5033042;28;19929;-62
2022/04/28 13:31:40;;;;;;;;;;;;;;;10.67;24.97;99791.13;5032346;28;19929;-63
2022/04/28 13:34:06;;;;;;;;;;;;;;;10.57;25.99;99788.22;5034291;28;19925;-64
2022/04/28 13:36:31;;;;;;;;;;;;;;;10.49;26.27;99788.53;5033399;28;20445;-63
2022/04/28 13:38:57;;;;;;;;;;;;;;;10.54;25.52;99789.47;5030746;28;19932;-64
2022/04/28 13:41:23;;;;;;;;;;;;;;;10.66;24.86;99790.31;5033345;28;19933;-63
2022/04/28 13:43:48;;;;;;;;;;;;;;;10.77;25.77;99788.72;5032242;28;19971;-66
2022/04/28 13:46:18;;;;;;;;;;;;;;;10.91;25.76;99786.63;5032434;28;20334;-63
2022/04/28 13:48:43;;;;;;;;;;;;;;;10.83;25.92;99787.81;5032879;28;19936;-65
2022/04/28 13:51:09;;;;;;;;;;;;;;;10.71;26.14;99784.34;5032438;28;19924;-64
2022/04/28 13:53:35;;;;;;;;;;;;;;;10.67;26.22;99780.50;5033255;28;19925;-63
2022/04/28 13:56:01;;;;;;;;;;;;;;;10.51;26.27;99781.97;5031720;28;19931;-64
2022/04/28 13:58:27;;;;;;;;;;;;;;;10.29;26.28;99783.53;5032026;28;20040;-65